Check out our new PWSWeather beta!
PWSweather.com
Personal Weather Stations
Station Observations
GIRWX1
Presovsky Kraj, GiraltovceSK

Presovsky KrajGiraltovceSK

Lat: 49.118, Lon: 21.52

Elevation: 630

Station Type: wh1080

http://www.meteogiraltovce.wz.cz/

High Low Average
Temperature 50.7°F10.4°C 44.1°F6.7°C 47.3°F8.5°C
Dew Point 46.7°F8.2°C 41.3°F5.2°C 43.9°F6.6°C
Winds 6.8 mph 10.9 kmh Calm Calm 2.0 mph WSW3.2 kmh WSW
Wind Gusts 9.2 mph14.8 kmh -- 4.0 mph6.4 kmh
Humidity 91% 86% 88%
Pressure 29.93 in1013.5 mb 29.78 in1008.5 mb -
Precipitation 1.04 in26.4 mm - -
Hour Temp Dew Point Humidity Winds Wind Gusts Pressure Precip Precip Rate Daily Precip Total
12:00 AM 50.7°F10.4°C 46.7°F8.2°C 86% 3.1 mph 5.0 kmh 3.8 mph6.1 kmh 29.85 in1010.8 mb 0.06 in1.5 mm 0.00 in0.0 mm 0.06 in1.5 mm
12:05 AM 50.7°F10.4°C 46.7°F8.2°C 86% 3.8 mph 6.1 kmh 4.5 mph7.2 kmh 29.85 in1010.8 mb 0.06 in1.5 mm 0.00 in0.0 mm 0.06 in1.5 mm
12:10 AM 50.7°F10.4°C 46.7°F8.2°C 86% 4.0 mph N6.4 kmh N 5.4 mph8.7 kmh 29.85 in1010.8 mb 0.06 in1.5 mm 0.00 in0.0 mm 0.06 in1.5 mm
12:15 AM 50.7°F10.4°C 46.7°F8.2°C 86% 3.8 mph N6.1 kmh N 5.4 mph8.7 kmh 29.85 in1010.8 mb 0.06 in1.5 mm 0.00 in0.0 mm 0.06 in1.5 mm
12:20 AM 50.6°F10.3°C 46.6°F8.1°C 86% 3.4 mph N5.5 kmh N 4.5 mph7.2 kmh 29.85 in1010.8 mb 0.06 in1.5 mm 0.00 in0.0 mm 0.06 in1.5 mm
12:25 AM 50.5°F10.3°C 46.5°F8.1°C 86% 2.1 mph N3.4 kmh N 3.1 mph5.0 kmh 29.85 in1010.8 mb 0.05 in1.3 mm 0.00 in0.0 mm 0.06 in1.5 mm
12:30 AM 50.5°F10.3°C 46.5°F8.1°C 86% 0.7 mph ENE1.1 kmh ENE 1.6 mph2.6 kmh 29.85 in1010.8 mb 0.05 in1.3 mm 0.00 in0.0 mm 0.06 in1.5 mm
12:35 AM 50.5°F10.3°C 46.5°F8.1°C 86% 0.1 mph NE0.2 kmh NE 1.6 mph2.6 kmh 29.85 in1010.8 mb 0.05 in1.3 mm 0.00 in0.0 mm 0.06 in1.5 mm
12:40 AM 50.4°F10.2°C 46.4°F8.0°C 86% 0.6 mph NNE1.0 kmh NNE 1.6 mph2.6 kmh 29.85 in1010.8 mb 0.04 in1.0 mm 0.00 in0.0 mm 0.06 in1.5 mm
12:45 AM 50.4°F10.2°C 46.3°F7.9°C 86% 1.3 mph 2.1 kmh 2.2 mph3.5 kmh 29.85 in1010.8 mb 0.02 in0.5 mm 0.00 in0.0 mm 0.06 in1.5 mm
12:50 AM 50.3°F10.2°C 46.3°F7.9°C 86% 1.6 mph NNW2.6 kmh NNW 2.2 mph3.5 kmh 29.84 in1010.5 mb 0.01 in0.3 mm 0.00 in0.0 mm 0.06 in1.5 mm
12:55 AM 50.2°F10.1°C 46.2°F7.9°C 86% 0.4 mph NW0.6 kmh NW 2.2 mph3.5 kmh 29.84 in1010.5 mb 0.00 in0.0 mm 0.00 in0.0 mm 0.06 in1.5 mm
01:00 AM 50.2°F10.1°C 46.2°F7.9°C 86% 0.8 mph NE1.3 kmh NE 2.2 mph3.5 kmh 29.84 in1010.5 mb 0.00 in0.0 mm 0.00 in0.0 mm 0.06 in1.5 mm
01:05 AM 50.1°F10.1°C 46.1°F7.8°C 86% Calm Calm 0.7 mph1.1 kmh 29.85 in1010.8 mb 0.00 in0.0 mm 0.00 in0.0 mm 0.06 in1.5 mm
01:10 AM 50.0°F10.0°C 46.0°F7.8°C 86% Calm Calm -- 29.84 in1010.5 mb 0.00 in0.0 mm 0.00 in0.0 mm 0.01 in0.3 mm
01:15 AM 50.0°F10.0°C 46.0°F7.8°C 86% Calm Calm -- 29.84 in1010.5 mb 0.00 in0.0 mm 0.00 in0.0 mm 0.01 in0.3 mm
01:20 AM 49.8°F9.9°C 45.8°F7.7°C 86% Calm Calm 0.7 mph1.1 kmh 29.84 in1010.5 mb 0.00 in0.0 mm 0.00 in0.0 mm 0.01 in0.3 mm
01:25 AM 49.8°F9.9°C 45.8°F7.7°C 86% Calm Calm -- 29.84 in1010.5 mb 0.00 in0.0 mm 0.00 in0.0 mm 0.01 in0.3 mm
01:30 AM 49.8°F9.9°C 45.8°F7.7°C 86% Calm Calm -- 29.84 in1010.5 mb 0.00 in0.0 mm 0.00 in0.0 mm 0.01 in0.3 mm
01:35 AM 49.8°F9.9°C 45.8°F7.7°C 86% Calm Calm 0.7 mph1.1 kmh 29.84 in1010.5 mb 0.00 in0.0 mm 0.00 in0.0 mm 0.01 in0.3 mm
01:40 AM 49.8°F9.9°C 45.8°F7.7°C 86% Calm Calm 0.7 mph1.1 kmh 29.84 in1010.5 mb 0.00 in0.0 mm 0.00 in0.0 mm 0.01 in0.3 mm
01:45 AM 49.7°F9.8°C 45.7°F7.6°C 86% Calm Calm 0.7 mph1.1 kmh 29.84 in1010.5 mb 0.00 in0.0 mm 0.00 in0.0 mm 0.01 in0.3 mm
01:50 AM 49.6°F9.8°C 45.6°F7.6°C 86% 0.6 mph NNE1.0 kmh NNE 1.6 mph2.6 kmh 29.83 in1010.2 mb 0.00 in0.0 mm 0.00 in0.0 mm 0.01 in0.3 mm
01:55 AM 49.6°F9.8°C 45.6°F7.6°C 86% 0.9 mph NE1.4 kmh NE 1.6 mph2.6 kmh 29.84 in1010.5 mb 0.00 in0.0 mm 0.00 in0.0 mm 0.01 in0.3 mm
02:00 AM 49.5°F9.7°C 45.4°F7.4°C 86% 1.6 mph NE2.6 kmh NE 2.2 mph3.5 kmh 29.83 in1010.2 mb 0.00 in0.0 mm 0.00 in0.0 mm 0.01 in0.3 mm
02:05 AM 49.5°F9.7°C 45.4°F7.4°C 86% 1.6 mph 2.6 kmh 2.2 mph3.5 kmh 29.83 in1010.2 mb 0.00 in0.0 mm 0.00 in0.0 mm 0.01 in0.3 mm
02:10 AM 49.5°F9.7°C 45.4°F7.4°C 86% 1.3 mph NNW2.1 kmh NNW 2.2 mph3.5 kmh 29.84 in1010.5 mb 0.00 in0.0 mm 0.00 in0.0 mm 0.01 in0.3 mm
02:15 AM 49.5°F9.7°C 45.4°F7.4°C 86% 0.1 mph NW0.2 kmh NW 1.6 mph2.6 kmh 29.83 in1010.2 mb 0.00 in0.0 mm 0.00 in0.0 mm 0.01 in0.3 mm
02:20 AM 49.5°F9.7°C 45.4°F7.4°C 86% 2.1 mph W3.4 kmh W 3.1 mph5.0 kmh 29.84 in1010.5 mb 0.00 in0.0 mm 0.00 in0.0 mm 0.01 in0.3 mm
02:25 AM 49.5°F9.7°C 45.4°F7.4°C 86% 1.3 mph NW2.1 kmh NW 2.2 mph3.5 kmh 29.84 in1010.5 mb 0.00 in0.0 mm 0.00 in0.0 mm 0.01 in0.3 mm
02:30 AM 49.6°F9.8°C 45.6°F7.6°C 86% 0.7 mph NW1.1 kmh NW 1.6 mph2.6 kmh 29.84 in1010.5 mb 0.00 in0.0 mm 0.00 in0.0 mm 0.01 in0.3 mm
02:35 AM 49.6°F9.8°C 45.6°F7.6°C 86% 0.1 mph SW0.2 kmh SW 0.7 mph1.1 kmh 29.84 in1010.5 mb 0.00 in0.0 mm 0.00 in0.0 mm 0.01 in0.3 mm
02:40 AM 49.6°F9.8°C 45.6°F7.6°C 86% Calm Calm 0.7 mph1.1 kmh 29.83 in1010.2 mb 0.01 in0.3 mm 0.12 in3.0 mm 0.02 in0.5 mm
02:45 AM 49.6°F9.8°C 45.6°F7.6°C 86% Calm Calm 0.7 mph1.1 kmh 29.84 in1010.5 mb 0.02 in0.5 mm 0.12 in3.0 mm 0.03 in0.8 mm
02:50 AM 49.7°F9.8°C 45.7°F7.6°C 86% 0.6 mph SSW1.0 kmh SSW 1.6 mph2.6 kmh 29.84 in1010.5 mb 0.03 in0.8 mm 0.12 in3.0 mm 0.04 in1.0 mm
02:55 AM 49.7°F9.8°C 45.8°F7.7°C 86% 0.5 mph NE0.8 kmh NE 2.2 mph3.5 kmh 29.84 in1010.5 mb 0.03 in0.8 mm 0.00 in0.0 mm 0.04 in1.0 mm
03:00 AM 49.8°F9.9°C 46.1°F7.8°C 87% 1.2 mph NE1.9 kmh NE 2.2 mph3.5 kmh 29.84 in1010.5 mb 0.05 in1.3 mm 0.02 in0.5 mm 0.06 in1.5 mm
03:05 AM 49.8°F9.9°C 46.1°F7.8°C 87% 0.4 mph SW0.6 kmh SW 2.2 mph3.5 kmh 29.84 in1010.5 mb 0.06 in1.5 mm 0.12 in3.0 mm 0.07 in1.8 mm
03:10 AM 49.8°F9.9°C 46.1°F7.8°C 87% 1.3 mph SW2.1 kmh SW 2.2 mph3.5 kmh 29.84 in1010.5 mb 0.07 in1.8 mm 0.12 in3.0 mm 0.08 in2.0 mm
03:15 AM 49.8°F9.9°C 46.1°F7.8°C 87% 0.3 mph W0.5 kmh W 1.6 mph2.6 kmh 29.84 in1010.5 mb 0.09 in2.3 mm 0.24 in6.1 mm 0.09 in2.3 mm
03:20 AM 49.8°F9.9°C 46.1°F7.8°C 87% 0.1 mph NW0.2 kmh NW 1.6 mph2.6 kmh 29.83 in1010.2 mb 0.09 in2.3 mm 0.00 in0.0 mm 0.10 in2.5 mm
03:25 AM 49.8°F9.9°C 46.1°F7.8°C 87% 1.1 mph NNE1.8 kmh NNE 2.2 mph3.5 kmh 29.83 in1010.2 mb 0.10 in2.5 mm 0.12 in3.0 mm 0.10 in2.5 mm
03:30 AM 49.8°F9.9°C 46.1°F7.8°C 87% 2.7 mph NE4.3 kmh NE 3.8 mph6.1 kmh 29.83 in1010.2 mb 0.10 in2.5 mm 0.00 in0.0 mm 0.11 in2.8 mm
03:35 AM 49.8°F9.9°C 46.1°F7.8°C 87% 1.5 mph NE2.4 kmh NE 2.2 mph3.5 kmh 29.83 in1010.2 mb 0.10 in2.5 mm 0.00 in0.0 mm 0.11 in2.8 mm
03:40 AM 49.8°F9.9°C 46.1°F7.8°C 87% 2.4 mph NE3.9 kmh NE 3.8 mph6.1 kmh 29.82 in1009.8 mb 0.11 in2.8 mm 0.12 in3.0 mm 0.12 in3.0 mm
03:45 AM 49.8°F9.9°C 46.1°F7.8°C 87% 2.1 mph N3.4 kmh N 3.8 mph6.1 kmh 29.82 in1009.8 mb 0.10 in2.5 mm 0.00 in0.0 mm 0.13 in3.3 mm
03:50 AM 49.8°F9.9°C 46.1°F7.8°C 87% 1.5 mph NW2.4 kmh NW 2.2 mph3.5 kmh 29.83 in1010.2 mb 0.09 in2.3 mm 0.00 in0.0 mm 0.13 in3.3 mm
03:55 AM 49.8°F9.9°C 46.1°F7.8°C 87% 1.5 mph W2.4 kmh W 3.1 mph5.0 kmh 29.83 in1010.2 mb 0.09 in2.3 mm 0.00 in0.0 mm 0.13 in3.3 mm
04:00 AM 49.8°F9.9°C 46.1°F7.8°C 87% 3.0 mph WNW4.8 kmh WNW 3.8 mph6.1 kmh 29.83 in1010.2 mb 0.07 in1.8 mm 0.00 in0.0 mm 0.13 in3.3 mm
04:05 AM 49.8°F9.9°C 46.1°F7.8°C 87% 3.1 mph NW5.0 kmh NW 3.1 mph5.0 kmh 29.82 in1009.8 mb 0.06 in1.5 mm 0.00 in0.0 mm 0.13 in3.3 mm
04:10 AM 49.8°F9.9°C 46.1°F7.8°C 87% 3.0 mph NNW4.8 kmh NNW 3.8 mph6.1 kmh 29.82 in1009.8 mb 0.05 in1.3 mm 0.00 in0.0 mm 0.13 in3.3 mm
04:15 AM 49.8°F9.9°C 46.1°F7.8°C 87% 1.3 mph NW2.1 kmh NW 2.2 mph3.5 kmh 29.83 in1010.2 mb 0.05 in1.3 mm 0.00 in0.0 mm 0.14 in3.6 mm
04:20 AM 49.8°F9.9°C 46.1°F7.8°C 87% 1.9 mph NE3.1 kmh NE 3.8 mph6.1 kmh 29.82 in1009.8 mb 0.06 in1.5 mm 0.12 in3.0 mm 0.16 in4.1 mm
04:25 AM 49.8°F9.9°C 46.4°F8.0°C 88% 1.1 mph NE1.8 kmh NE 2.2 mph3.5 kmh 29.82 in1009.8 mb 0.06 in1.5 mm 0.00 in0.0 mm 0.17 in4.3 mm
04:30 AM 49.8°F9.9°C 46.4°F8.0°C 88% Calm Calm 0.7 mph1.1 kmh 29.82 in1009.8 mb 0.06 in1.5 mm 0.00 in0.0 mm 0.17 in4.3 mm
04:35 AM 49.8°F9.9°C 46.4°F8.0°C 88% Calm Calm 0.7 mph1.1 kmh 29.82 in1009.8 mb 0.06 in1.5 mm 0.00 in0.0 mm 0.17 in4.3 mm
04:40 AM 49.8°F9.9°C 46.4°F8.0°C 88% Calm Calm 0.7 mph1.1 kmh 29.82 in1009.8 mb 0.04 in1.0 mm 0.00 in0.0 mm 0.17 in4.3 mm
04:45 AM 49.8°F9.9°C 46.4°F8.0°C 88% 3.5 mph NW5.6 kmh NW 5.4 mph8.7 kmh 29.82 in1009.8 mb 0.04 in1.0 mm 0.00 in0.0 mm 0.17 in4.3 mm
04:50 AM 49.8°F9.9°C 46.4°F8.0°C 88% 3.4 mph NW5.5 kmh NW 5.4 mph8.7 kmh 29.82 in1009.8 mb 0.04 in1.0 mm 0.00 in0.0 mm 0.17 in4.3 mm
04:55 AM 49.8°F9.9°C 46.4°F8.0°C 88% 4.1 mph NW6.6 kmh NW 6.0 mph9.7 kmh 29.82 in1009.8 mb 0.04 in1.0 mm 0.00 in0.0 mm 0.17 in4.3 mm
05:00 AM 49.8°F9.9°C 46.4°F8.0°C 88% 4.0 mph NW6.4 kmh NW 4.5 mph7.2 kmh 29.82 in1009.8 mb 0.04 in1.0 mm 0.00 in0.0 mm 0.17 in4.3 mm
05:05 AM 49.8°F9.9°C 46.4°F8.0°C 88% 3.9 mph NNW6.3 kmh NNW 5.4 mph8.7 kmh 29.82 in1009.8 mb 0.05 in1.3 mm 0.12 in3.0 mm 0.18 in4.6 mm
05:10 AM 49.8°F9.9°C 46.4°F8.0°C 88% 3.5 mph NW5.6 kmh NW 5.4 mph8.7 kmh 29.82 in1009.8 mb 0.05 in1.3 mm 0.00 in0.0 mm 0.18 in4.6 mm
05:15 AM 49.8°F9.9°C 46.4°F8.0°C 88% 3.5 mph NNW5.6 kmh NNW 5.4 mph8.7 kmh 29.82 in1009.8 mb 0.04 in1.0 mm 0.00 in0.0 mm 0.18 in4.6 mm
05:20 AM 49.8°F9.9°C 46.4°F8.0°C 88% 3.5 mph NW5.6 kmh NW 6.0 mph9.7 kmh 29.82 in1009.8 mb 0.02 in0.5 mm 0.00 in0.0 mm 0.18 in4.6 mm
05:25 AM 49.8°F9.9°C 46.4°F8.0°C 88% 2.3 mph N3.7 kmh N 6.0 mph9.7 kmh 29.82 in1009.8 mb 0.02 in0.5 mm 0.00 in0.0 mm 0.18 in4.6 mm
05:30 AM 49.8°F9.9°C 46.4°F8.0°C 88% 0.4 mph SW0.6 kmh SW 1.6 mph2.6 kmh 29.82 in1009.8 mb 0.02 in0.5 mm 0.00 in0.0 mm 0.18 in4.6 mm
05:35 AM 49.8°F9.9°C 46.4°F8.0°C 88% 2.0 mph 3.2 kmh 3.8 mph6.1 kmh 29.82 in1009.8 mb 0.02 in0.5 mm 0.00 in0.0 mm 0.18 in4.6 mm
05:40 AM 49.8°F9.9°C 46.4°F8.0°C 88% 1.2 mph NW1.9 kmh NW 3.1 mph5.0 kmh 29.82 in1009.8 mb 0.02 in0.5 mm 0.00 in0.0 mm 0.18 in4.6 mm
05:45 AM 49.8°F9.9°C 46.4°F8.0°C 88% 4.3 mph NNW6.9 kmh NNW 6.0 mph9.7 kmh 29.82 in1009.8 mb 0.02 in0.5 mm 0.00 in0.0 mm 0.19 in4.8 mm
05:50 AM 49.8°F9.9°C 46.4°F8.0°C 88% 5.3 mph N8.5 kmh N 7.6 mph12.2 kmh 29.82 in1009.8 mb 0.03 in0.8 mm 0.12 in3.0 mm 0.20 in5.1 mm
05:55 AM 49.7°F9.8°C 46.3°F7.9°C 88% 4.9 mph NW7.9 kmh NW 7.6 mph12.2 kmh 29.82 in1009.8 mb 0.03 in0.8 mm 0.00 in0.0 mm 0.21 in5.3 mm
06:00 AM 49.6°F9.8°C 46.2°F7.9°C 88% 4.0 mph NW6.4 kmh NW 5.4 mph8.7 kmh 29.82 in1009.8 mb 0.04 in1.0 mm 0.01 in0.3 mm 0.21 in5.3 mm
06:05 AM 49.6°F9.8°C 46.2°F7.9°C 88% 3.1 mph W5.0 kmh W 4.5 mph7.2 kmh 29.82 in1009.8 mb 0.03 in0.8 mm 0.00 in0.0 mm 0.21 in5.3 mm
06:10 AM 49.5°F9.7°C 46.1°F7.8°C 88% 4.3 mph NW6.9 kmh NW 6.0 mph9.7 kmh 29.82 in1009.8 mb 0.06 in1.5 mm 0.36 in9.1 mm 0.24 in6.1 mm
06:15 AM 49.3°F9.6°C 45.9°F7.7°C 88% 5.2 mph NW8.4 kmh NW 8.3 mph13.4 kmh 29.82 in1009.8 mb 0.07 in1.8 mm 0.12 in3.0 mm 0.25 in6.4 mm
06:20 AM 49.2°F9.6°C 45.8°F7.7°C 88% 6.2 mph NW10.0 kmh NW 8.3 mph13.4 kmh 29.82 in1009.8 mb 0.07 in1.8 mm 0.00 in0.0 mm 0.25 in6.4 mm
06:25 AM 49.1°F9.5°C 45.7°F7.6°C 88% 5.4 mph NW8.7 kmh NW 7.6 mph12.2 kmh 29.82 in1009.8 mb 0.07 in1.8 mm 0.00 in0.0 mm 0.26 in6.6 mm
06:30 AM 48.9°F9.4°C 45.5°F7.5°C 88% 5.5 mph N8.9 kmh N 8.3 mph13.4 kmh 29.82 in1009.8 mb 0.07 in1.8 mm 0.00 in0.0 mm 0.26 in6.6 mm
06:35 AM 48.8°F9.3°C 45.2°F7.3°C 87% 5.8 mph NNW9.3 kmh NNW 8.3 mph13.4 kmh 29.82 in1009.8 mb 0.07 in1.8 mm 0.00 in0.0 mm 0.26 in6.6 mm
06:40 AM 48.7°F9.3°C 45.0°F7.2°C 87% 5.2 mph NNW8.4 kmh NNW 6.9 mph11.1 kmh 29.82 in1009.8 mb 0.08 in2.0 mm 0.12 in3.0 mm 0.27 in6.9 mm
06:45 AM 48.6°F9.2°C 44.9°F7.2°C 87% 5.9 mph N9.5 kmh N 8.3 mph13.4 kmh 29.83 in1010.2 mb 0.09 in2.3 mm 0.12 in3.0 mm 0.28 in7.1 mm
06:50 AM 48.5°F9.2°C 44.8°F7.1°C 87% 6.8 mph N10.9 kmh N 9.2 mph14.8 kmh 29.82 in1009.8 mb 0.08 in2.0 mm 0.00 in0.0 mm 0.28 in7.1 mm
06:55 AM 48.3°F9.1°C 44.6°F7.0°C 87% 5.5 mph NW8.9 kmh NW 8.3 mph13.4 kmh 29.83 in1010.2 mb 0.08 in2.0 mm 0.00 in0.0 mm 0.28 in7.1 mm
07:00 AM 48.2°F9.0°C 44.5°F6.9°C 87% 6.2 mph NW10.0 kmh NW 8.3 mph13.4 kmh 29.83 in1010.2 mb 0.07 in1.8 mm 0.00 in0.0 mm 0.28 in7.1 mm
07:05 AM 48.1°F8.9°C 44.4°F6.9°C 87% 4.9 mph NNW7.9 kmh NNW 8.3 mph13.4 kmh 29.83 in1010.2 mb 0.07 in1.8 mm 0.00 in0.0 mm 0.28 in7.1 mm
07:10 AM 48.0°F8.9°C 44.3°F6.8°C 87% 5.3 mph N8.5 kmh N 7.6 mph12.2 kmh 29.83 in1010.2 mb 0.05 in1.3 mm 0.00 in0.0 mm 0.28 in7.1 mm
07:15 AM 47.9°F8.8°C 44.2°F6.8°C 87% 2.9 mph NW4.7 kmh NW 4.5 mph7.2 kmh 29.83 in1010.2 mb 0.04 in1.0 mm 0.00 in0.0 mm 0.28 in7.1 mm
07:20 AM 47.8°F8.8°C 44.2°F6.8°C 87% 4.5 mph NW7.2 kmh NW 6.9 mph11.1 kmh 29.83 in1010.2 mb 0.03 in0.8 mm 0.00 in0.0 mm 0.28 in7.1 mm
07:25 AM 47.7°F8.7°C 44.1°F6.7°C 87% 5.0 mph NNW8.0 kmh NNW 6.9 mph11.1 kmh 29.83 in1010.2 mb 0.03 in0.8 mm 0.00 in0.0 mm 0.28 in7.1 mm
07:30 AM 47.7°F8.7°C 44.0°F6.7°C 87% 3.9 mph NW6.3 kmh NW 6.9 mph11.1 kmh 29.83 in1010.2 mb 0.03 in0.8 mm 0.00 in0.0 mm 0.28 in7.1 mm
07:35 AM 47.6°F8.7°C 44.0°F6.7°C 87% 3.7 mph NW6.0 kmh NW 6.9 mph11.1 kmh 29.83 in1010.2 mb 0.02 in0.5 mm 0.00 in0.0 mm 0.28 in7.1 mm
07:40 AM 47.5°F8.6°C 43.8°F6.6°C 87% 4.5 mph NW7.2 kmh NW 6.9 mph11.1 kmh 29.83 in1010.2 mb 0.02 in0.5 mm 0.00 in0.0 mm 0.28 in7.1 mm
07:45 AM 47.5°F8.6°C 43.8°F6.6°C 87% 4.1 mph N6.6 kmh N 6.9 mph11.1 kmh 29.83 in1010.2 mb 0.01 in0.3 mm 0.00 in0.0 mm 0.28 in7.1 mm
07:50 AM 47.4°F8.6°C 43.7°F6.5°C 87% 3.9 mph N6.3 kmh N 6.9 mph11.1 kmh 29.83 in1010.2 mb 0.01 in0.3 mm 0.00 in0.0 mm 0.29 in7.4 mm
07:55 AM 47.3°F8.5°C 43.6°F6.4°C 87% 4.1 mph NNW6.6 kmh NNW 6.0 mph9.7 kmh 29.83 in1010.2 mb 0.00 in0.0 mm 0.00 in0.0 mm 0.29 in7.4 mm
08:00 AM 47.3°F8.5°C 43.6°F6.4°C 87% 4.2 mph NW6.8 kmh NW 6.0 mph9.7 kmh 29.83 in1010.2 mb 0.01 in0.3 mm 0.01 in0.3 mm 0.29 in7.4 mm
08:05 AM 47.3°F8.5°C 43.6°F6.4°C 87% 4.5 mph NW7.2 kmh NW 5.4 mph8.7 kmh 29.83 in1010.2 mb 0.01 in0.3 mm 0.00 in0.0 mm 0.29 in7.4 mm
08:10 AM 47.2°F8.4°C 43.5°F6.4°C 87% 4.3 mph NW6.9 kmh NW 6.0 mph9.7 kmh 29.83 in1010.2 mb 0.01 in0.3 mm 0.00 in0.0 mm 0.29 in7.4 mm
08:15 AM 47.1°F8.4°C 43.5°F6.4°C 87% 4.2 mph NW6.8 kmh NW 5.4 mph8.7 kmh 29.83 in1010.2 mb 0.01 in0.3 mm 0.00 in0.0 mm 0.30 in7.6 mm
08:20 AM 47.1°F8.4°C 43.5°F6.4°C 87% 3.6 mph NNW5.8 kmh NNW 5.4 mph8.7 kmh 29.83 in1010.2 mb 0.02 in0.5 mm 0.12 in3.0 mm 0.31 in7.9 mm
08:25 AM 47.1°F8.4°C 43.5°F6.4°C 87% 4.3 mph NW6.9 kmh NW 5.4 mph8.7 kmh 29.83 in1010.2 mb 0.03 in0.8 mm 0.12 in3.0 mm 0.31 in7.9 mm
08:30 AM 47.1°F8.4°C 43.5°F6.4°C 87% 4.1 mph NW6.6 kmh NW 6.0 mph9.7 kmh 29.83 in1010.2 mb 0.04 in1.0 mm 0.12 in3.0 mm 0.32 in8.1 mm
08:35 AM 47.1°F8.4°C 43.5°F6.4°C 87% 3.2 mph NW5.1 kmh NW 4.5 mph7.2 kmh 29.83 in1010.2 mb 0.04 in1.0 mm 0.00 in0.0 mm 0.33 in8.4 mm
08:40 AM 47.1°F8.4°C 43.5°F6.4°C 87% 3.4 mph NW5.5 kmh NW 5.4 mph8.7 kmh 29.83 in1010.2 mb 0.05 in1.3 mm 0.12 in3.0 mm 0.33 in8.4 mm
08:45 AM 47.1°F8.4°C 43.5°F6.4°C 87% 3.7 mph WNW6.0 kmh WNW 5.4 mph8.7 kmh 29.83 in1010.2 mb 0.06 in1.5 mm 0.12 in3.0 mm 0.34 in8.6 mm
08:50 AM 47.1°F8.4°C 43.4°F6.3°C 87% 3.3 mph W5.3 kmh W 5.4 mph8.7 kmh 29.83 in1010.2 mb 0.06 in1.5 mm 0.00 in0.0 mm 0.35 in8.9 mm
08:55 AM 46.9°F8.3°C 43.3°F6.3°C 87% 3.6 mph NW5.8 kmh NW 5.4 mph8.7 kmh 29.83 in1010.2 mb 0.07 in1.8 mm 0.12 in3.0 mm 0.36 in9.1 mm
09:00 AM 46.9°F8.3°C 43.3°F6.3°C 87% 3.5 mph W5.6 kmh W 4.5 mph7.2 kmh 29.83 in1010.2 mb 0.08 in2.0 mm 0.01 in0.3 mm 0.37 in9.4 mm
09:05 AM 47.0°F8.3°C 43.3°F6.3°C 87% 3.3 mph NW5.3 kmh NW 5.4 mph8.7 kmh 29.83 in1010.2 mb 0.09 in2.3 mm 0.12 in3.0 mm 0.38 in9.7 mm
09:10 AM 47.1°F8.4°C 43.5°F6.4°C 87% 4.4 mph NW7.1 kmh NW 6.0 mph9.7 kmh 29.82 in1009.8 mb 0.10 in2.5 mm 0.12 in3.0 mm 0.39 in9.9 mm
09:15 AM 47.1°F8.4°C 43.5°F6.4°C 87% 4.2 mph NW6.8 kmh NW 6.9 mph11.1 kmh 29.83 in1010.2 mb 0.10 in2.5 mm 0.00 in0.0 mm 0.40 in10.2 mm
09:20 AM 47.1°F8.4°C 43.5°F6.4°C 87% 3.2 mph WNW5.1 kmh WNW 4.5 mph7.2 kmh 29.83 in1010.2 mb 0.10 in2.5 mm 0.00 in0.0 mm 0.41 in10.4 mm
09:25 AM 47.1°F8.4°C 43.5°F6.4°C 87% 4.2 mph NW6.8 kmh NW 6.0 mph9.7 kmh 29.82 in1009.8 mb 0.11 in2.8 mm 0.12 in3.0 mm 0.43 in10.9 mm
09:30 AM 47.0°F8.3°C 43.4°F6.3°C 87% 5.0 mph NW8.0 kmh NW 6.9 mph11.1 kmh 29.82 in1009.8 mb 0.12 in3.0 mm 0.12 in3.0 mm 0.44 in11.2 mm
09:35 AM 47.0°F8.3°C 43.3°F6.3°C 87% 4.9 mph NW7.9 kmh NW 6.0 mph9.7 kmh 29.83 in1010.2 mb 0.11 in2.8 mm 0.00 in0.0 mm 0.44 in11.2 mm
09:40 AM 47.1°F8.4°C 43.5°F6.4°C 87% 4.4 mph WNW7.1 kmh WNW 6.9 mph11.1 kmh 29.83 in1010.2 mb 0.12 in3.0 mm 0.12 in3.0 mm 0.45 in11.4 mm
09:45 AM 46.9°F8.3°C 43.3°F6.3°C 87% 3.6 mph WSW5.8 kmh WSW 6.9 mph11.1 kmh 29.82 in1009.8 mb 0.12 in3.0 mm 0.00 in0.0 mm 0.46 in11.7 mm
09:50 AM 46.9°F8.3°C 43.3°F6.3°C 87% 4.8 mph NW7.7 kmh NW 6.9 mph11.1 kmh 29.82 in1009.8 mb 0.12 in3.0 mm 0.00 in0.0 mm 0.47 in11.9 mm
09:55 AM 46.9°F8.3°C 43.3°F6.3°C 87% 5.0 mph NW8.0 kmh NW 6.9 mph11.1 kmh 29.82 in1009.8 mb 0.11 in2.8 mm 0.00 in0.0 mm 0.47 in11.9 mm
10:00 AM 46.9°F8.3°C 43.3°F6.3°C 87% 5.4 mph NW8.7 kmh NW 7.6 mph12.2 kmh 29.82 in1009.8 mb 0.11 in2.8 mm 0.00 in0.0 mm 0.48 in12.2 mm
10:05 AM 46.9°F8.3°C 43.3°F6.3°C 87% 3.1 mph NNW5.0 kmh NNW 3.8 mph6.1 kmh 29.82 in1009.8 mb 0.10 in2.5 mm 0.00 in0.0 mm 0.48 in12.2 mm
10:10 AM 46.9°F8.3°C 43.3°F6.3°C 87% 4.0 mph NW6.4 kmh NW 6.0 mph9.7 kmh 29.82 in1009.8 mb 0.11 in2.8 mm 0.12 in3.0 mm 0.50 in12.7 mm
10:15 AM 46.9°F8.3°C 43.3°F6.3°C 87% 4.2 mph NW6.8 kmh NW 6.0 mph9.7 kmh 29.82 in1009.8 mb 0.10 in2.5 mm 0.00 in0.0 mm 0.50 in12.7 mm
10:20 AM 46.9°F8.3°C 43.3°F6.3°C 87% 4.9 mph NW7.9 kmh NW 6.9 mph11.1 kmh 29.82 in1009.8 mb 0.10 in2.5 mm 0.00 in0.0 mm 0.51 in13.0 mm
10:25 AM 47.1°F8.4°C 43.5°F6.4°C 87% 4.0 mph NW6.4 kmh NW 6.0 mph9.7 kmh 29.82 in1009.8 mb 0.09 in2.3 mm 0.00 in0.0 mm 0.52 in13.2 mm
10:30 AM 47.1°F8.4°C 43.5°F6.4°C 87% 3.6 mph NW5.8 kmh NW 6.0 mph9.7 kmh 29.82 in1009.8 mb 0.09 in2.3 mm 0.00 in0.0 mm 0.53 in13.5 mm
10:35 AM 47.1°F8.4°C 43.5°F6.4°C 87% 3.7 mph NW6.0 kmh NW 4.5 mph7.2 kmh 29.81 in1009.5 mb 0.10 in2.5 mm 0.12 in3.0 mm 0.54 in13.7 mm
10:40 AM 47.1°F8.4°C 43.5°F6.4°C 87% 4.5 mph NW7.2 kmh NW 6.0 mph9.7 kmh 29.81 in1009.5 mb 0.09 in2.3 mm 0.00 in0.0 mm 0.54 in13.7 mm
10:45 AM 47.1°F8.4°C 43.5°F6.4°C 87% 3.0 mph WNW4.8 kmh WNW 5.4 mph8.7 kmh 29.81 in1009.5 mb 0.10 in2.5 mm 0.12 in3.0 mm 0.55 in14.0 mm
10:50 AM 47.1°F8.4°C 43.5°F6.4°C 87% 2.3 mph NW3.7 kmh NW 4.5 mph7.2 kmh 29.81 in1009.5 mb 0.10 in2.5 mm 0.00 in0.0 mm 0.57 in14.5 mm
10:55 AM 47.1°F8.4°C 43.5°F6.4°C 87% 2.4 mph NW3.9 kmh NW 4.5 mph7.2 kmh 29.81 in1009.5 mb 0.11 in2.8 mm 0.12 in3.0 mm 0.58 in14.7 mm
11:00 AM 47.1°F8.4°C 43.5°F6.4°C 87% 3.1 mph WNW5.0 kmh WNW 4.5 mph7.2 kmh 29.81 in1009.5 mb 0.11 in2.8 mm 0.00 in0.0 mm 0.59 in15.0 mm
11:05 AM 47.1°F8.4°C 43.5°F6.4°C 87% 2.6 mph NW4.2 kmh NW 4.5 mph7.2 kmh 29.81 in1009.5 mb 0.11 in2.8 mm 0.00 in0.0 mm 0.60 in15.2 mm
11:10 AM 47.1°F8.4°C 43.5°F6.4°C 87% 2.8 mph W4.5 kmh W 5.4 mph8.7 kmh 29.81 in1009.5 mb 0.11 in2.8 mm 0.00 in0.0 mm 0.61 in15.5 mm
11:15 AM 47.1°F8.4°C 43.5°F6.4°C 87% 2.3 mph W3.7 kmh W 4.5 mph7.2 kmh 29.81 in1009.5 mb 0.11 in2.8 mm 0.00 in0.0 mm 0.61 in15.5 mm
11:20 AM 47.1°F8.4°C 43.5°F6.4°C 87% 3.0 mph NW4.8 kmh NW 4.5 mph7.2 kmh 29.80 in1009.1 mb 0.11 in2.8 mm 0.00 in0.0 mm 0.62 in15.7 mm
11:25 AM 47.1°F8.4°C 43.5°F6.4°C 87% 2.4 mph WNW3.9 kmh WNW 5.4 mph8.7 kmh 29.80 in1009.1 mb 0.11 in2.8 mm 0.00 in0.0 mm 0.63 in16.0 mm
11:30 AM 47.1°F8.4°C 43.5°F6.4°C 87% 2.6 mph NW4.2 kmh NW 4.5 mph7.2 kmh 29.81 in1009.5 mb 0.11 in2.8 mm 0.00 in0.0 mm 0.63 in16.0 mm
11:35 AM 47.1°F8.4°C 43.5°F6.4°C 87% 4.2 mph N6.8 kmh N 7.6 mph12.2 kmh 29.81 in1009.5 mb 0.11 in2.8 mm 0.00 in0.0 mm 0.65 in16.5 mm
11:40 AM 47.1°F8.4°C 43.5°F6.4°C 87% 1.9 mph NW3.1 kmh NW 3.8 mph6.1 kmh 29.80 in1009.1 mb 0.11 in2.8 mm 0.00 in0.0 mm 0.66 in16.8 mm
11:45 AM 47.3°F8.5°C 43.6°F6.4°C 87% 2.1 mph N3.4 kmh N 5.4 mph8.7 kmh 29.80 in1009.1 mb 0.11 in2.8 mm 0.00 in0.0 mm 0.66 in16.8 mm
11:50 AM 47.3°F8.5°C 43.8°F6.6°C 88% 2.2 mph NE3.5 kmh NE 3.8 mph6.1 kmh 29.79 in1008.8 mb 0.10 in2.5 mm 0.00 in0.0 mm 0.67 in17.0 mm
11:55 AM 47.3°F8.5°C 43.9°F6.6°C 88% 1.4 mph N2.3 kmh N 3.1 mph5.0 kmh 29.79 in1008.8 mb 0.10 in2.5 mm 0.00 in0.0 mm 0.67 in17.0 mm
12:00 PM 47.4°F8.6°C 44.0°F6.7°C 88% 1.7 mph NW2.7 kmh NW 3.8 mph6.1 kmh 29.79 in1008.8 mb 0.09 in2.3 mm 0.00 in0.0 mm 0.68 in17.3 mm
12:05 PM 47.5°F8.6°C 44.1°F6.7°C 88% 1.6 mph NW2.6 kmh NW 2.2 mph3.5 kmh 29.79 in1008.8 mb 0.09 in2.3 mm 0.00 in0.0 mm 0.68 in17.3 mm
12:10 PM 47.6°F8.7°C 44.2°F6.8°C 88% 2.3 mph NW3.7 kmh NW 4.5 mph7.2 kmh 29.79 in1008.8 mb 0.09 in2.3 mm 0.00 in0.0 mm 0.70 in17.8 mm
12:15 PM 47.7°F8.7°C 44.3°F6.8°C 88% 2.2 mph NW3.5 kmh NW 3.8 mph6.1 kmh 29.79 in1008.8 mb 0.09 in2.3 mm 0.00 in0.0 mm 0.70 in17.8 mm
12:20 PM 47.7°F8.7°C 44.3°F6.8°C 88% 1.7 mph NW2.7 kmh NW 3.8 mph6.1 kmh 29.79 in1008.8 mb 0.09 in2.3 mm 0.00 in0.0 mm 0.71 in18.0 mm
12:25 PM 47.7°F8.7°C 44.3°F6.8°C 88% 2.6 mph NW4.2 kmh NW 4.5 mph7.2 kmh 29.79 in1008.8 mb 0.08 in2.0 mm 0.00 in0.0 mm 0.71 in18.0 mm
12:30 PM 47.7°F8.7°C 44.3°F6.8°C 88% 3.4 mph NW5.5 kmh NW 4.5 mph7.2 kmh 29.79 in1008.8 mb 0.08 in2.0 mm 0.00 in0.0 mm 0.72 in18.3 mm
12:35 PM 47.7°F8.7°C 44.3°F6.8°C 88% 3.1 mph WNW5.0 kmh WNW 4.5 mph7.2 kmh 29.78 in1008.5 mb 0.07 in1.8 mm 0.00 in0.0 mm 0.72 in18.3 mm
12:40 PM 47.7°F8.7°C 44.3°F6.8°C 88% 4.0 mph NW6.4 kmh NW 6.9 mph11.1 kmh 29.79 in1008.8 mb 0.07 in1.8 mm 0.00 in0.0 mm 0.73 in18.5 mm
12:45 PM 47.7°F8.7°C 44.3°F6.8°C 88% 3.7 mph WNW6.0 kmh WNW 6.9 mph11.1 kmh 29.78 in1008.5 mb 0.07 in1.8 mm 0.00 in0.0 mm 0.73 in18.5 mm
12:50 PM 47.7°F8.7°C 44.3°F6.8°C 88% 2.6 mph W4.2 kmh W 4.5 mph7.2 kmh 29.79 in1008.8 mb 0.07 in1.8 mm 0.00 in0.0 mm 0.74 in18.8 mm
12:55 PM 47.7°F8.7°C 44.3°F6.8°C 88% 1.6 mph W2.6 kmh W 3.1 mph5.0 kmh 29.78 in1008.5 mb 0.07 in1.8 mm 0.00 in0.0 mm 0.74 in18.8 mm
01:00 PM 47.5°F8.6°C 44.2°F6.8°C 88% 2.3 mph W3.7 kmh W 4.5 mph7.2 kmh 29.78 in1008.5 mb 0.07 in1.8 mm 0.00 in0.0 mm 0.75 in19.1 mm
01:07 PM 47.5°F8.6°C 44.1°F6.7°C 88% 2.2 mph W3.5 kmh W 3.1 mph5.0 kmh 29.79 in1008.8 mb 0.06 in1.5 mm 0.00 in0.0 mm 0.75 in19.1 mm
01:12 PM 47.5°F8.6°C 44.1°F6.7°C 88% 2.2 mph W3.5 kmh W 3.1 mph5.0 kmh 29.78 in1008.5 mb 0.06 in1.5 mm 0.00 in0.0 mm 0.75 in19.1 mm
01:17 PM 47.5°F8.6°C 44.1°F6.7°C 88% 1.6 mph WSW2.6 kmh WSW 2.2 mph3.5 kmh 29.79 in1008.8 mb 0.06 in1.5 mm 0.00 in0.0 mm 0.76 in19.3 mm
01:20 PM 47.5°F8.6°C 44.1°F6.7°C 88% 1.7 mph W2.7 kmh W 3.1 mph5.0 kmh 29.78 in1008.5 mb 0.06 in1.5 mm 0.00 in0.0 mm 0.77 in19.6 mm
01:25 PM 47.5°F8.6°C 44.1°F6.7°C 88% 1.9 mph NW3.1 kmh NW 3.1 mph5.0 kmh 29.78 in1008.5 mb 0.07 in1.8 mm 0.12 in3.0 mm 0.78 in19.8 mm
01:30 PM 47.5°F8.6°C 44.1°F6.7°C 88% 2.3 mph NW3.7 kmh NW 6.0 mph9.7 kmh 29.78 in1008.5 mb 0.07 in1.8 mm 0.00 in0.0 mm 0.79 in20.1 mm
01:35 PM 47.5°F8.6°C 44.1°F6.7°C 88% 3.0 mph NW4.8 kmh NW 5.4 mph8.7 kmh 29.78 in1008.5 mb 0.07 in1.8 mm 0.00 in0.0 mm 0.79 in20.1 mm
01:40 PM 47.5°F8.6°C 44.1°F6.7°C 88% 4.3 mph NNW6.9 kmh NNW 6.0 mph9.7 kmh 29.78 in1008.5 mb 0.07 in1.8 mm 0.00 in0.0 mm 0.80 in20.3 mm
01:45 PM 47.5°F8.6°C 44.1°F6.7°C 88% 3.4 mph N5.5 kmh N 5.4 mph8.7 kmh 29.78 in1008.5 mb 0.07 in1.8 mm 0.00 in0.0 mm 0.80 in20.3 mm
01:50 PM 47.4°F8.6°C 44.0°F6.7°C 88% 3.5 mph NW5.6 kmh NW 5.4 mph8.7 kmh 29.79 in1008.8 mb 0.06 in1.5 mm 0.00 in0.0 mm 0.80 in20.3 mm
01:55 PM 47.3°F8.5°C 43.9°F6.6°C 88% 2.4 mph NW3.9 kmh NW 4.5 mph7.2 kmh 29.79 in1008.8 mb 0.06 in1.5 mm 0.00 in0.0 mm 0.81 in20.6 mm
02:00 PM 47.3°F8.5°C 43.9°F6.6°C 88% 0.9 mph W1.4 kmh W 3.1 mph5.0 kmh 29.79 in1008.8 mb 0.06 in1.5 mm 0.00 in0.0 mm 0.81 in20.6 mm
02:05 PM 47.3°F8.5°C 43.9°F6.6°C 88% 2.2 mph W3.5 kmh W 3.1 mph5.0 kmh 29.79 in1008.8 mb 0.06 in1.5 mm 0.00 in0.0 mm 0.81 in20.6 mm
02:10 PM 47.3°F8.5°C 43.9°F6.6°C 88% 1.8 mph WNW2.9 kmh WNW 3.8 mph6.1 kmh 29.79 in1008.8 mb 0.07 in1.8 mm 0.12 in3.0 mm 0.82 in20.8 mm
02:15 PM 47.2°F8.4°C 43.9°F6.6°C 88% 2.0 mph NW3.2 kmh NW 4.5 mph7.2 kmh 29.79 in1008.8 mb 0.07 in1.8 mm 0.00 in0.0 mm 0.82 in20.8 mm
02:20 PM 47.1°F8.4°C 43.8°F6.6°C 88% 2.0 mph W3.2 kmh W 4.5 mph7.2 kmh 29.79 in1008.8 mb 0.06 in1.5 mm 0.00 in0.0 mm 0.83 in21.1 mm
02:25 PM 47.1°F8.4°C 43.8°F6.6°C 88% 1.3 mph NW2.1 kmh NW 3.1 mph5.0 kmh 29.79 in1008.8 mb 0.05 in1.3 mm 0.00 in0.0 mm 0.83 in21.1 mm
02:30 PM 47.1°F8.4°C 43.8°F6.6°C 88% 2.1 mph NW3.4 kmh NW 3.8 mph6.1 kmh 29.80 in1009.1 mb 0.04 in1.0 mm 0.00 in0.0 mm 0.83 in21.1 mm
02:35 PM 47.1°F8.4°C 43.8°F6.6°C 88% 1.9 mph NW3.1 kmh NW 4.5 mph7.2 kmh 29.79 in1008.8 mb 0.04 in1.0 mm 0.00 in0.0 mm 0.83 in21.1 mm
02:40 PM 47.1°F8.4°C 43.8°F6.6°C 88% 1.7 mph WNW2.7 kmh WNW 3.1 mph5.0 kmh 29.80 in1009.1 mb 0.04 in1.0 mm 0.00 in0.0 mm 0.83 in21.1 mm
02:45 PM 47.1°F8.4°C 43.8°F6.6°C 88% 0.7 mph WNW1.1 kmh WNW 2.2 mph3.5 kmh 29.80 in1009.1 mb 0.04 in1.0 mm 0.00 in0.0 mm 0.84 in21.3 mm
02:50 PM 47.1°F8.4°C 43.8°F6.6°C 88% 2.3 mph NW3.7 kmh NW 3.8 mph6.1 kmh 29.80 in1009.1 mb 0.04 in1.0 mm 0.00 in0.0 mm 0.84 in21.3 mm
02:55 PM 47.1°F8.4°C 43.8°F6.6°C 88% 1.3 mph NW2.1 kmh NW 3.1 mph5.0 kmh 29.80 in1009.1 mb 0.03 in0.8 mm 0.00 in0.0 mm 0.84 in21.3 mm
03:00 PM 47.1°F8.4°C 43.8°F6.6°C 88% 1.3 mph NW2.1 kmh NW 3.1 mph5.0 kmh 29.80 in1009.1 mb 0.02 in0.5 mm 0.00 in0.0 mm 0.84 in21.3 mm
03:05 PM 47.1°F8.4°C 43.5°F6.4°C 87% 1.3 mph NNW2.1 kmh NNW 3.8 mph6.1 kmh 29.80 in1009.1 mb 0.03 in0.8 mm 0.12 in3.0 mm 0.84 in21.3 mm
03:10 PM 47.0°F8.3°C 43.4°F6.3°C 87% 1.9 mph NNW3.1 kmh NNW 3.8 mph6.1 kmh 29.80 in1009.1 mb 0.02 in0.5 mm 0.00 in0.0 mm 0.84 in21.3 mm
03:15 PM 46.9°F8.3°C 43.3°F6.3°C 87% 1.7 mph NW2.7 kmh NW 3.8 mph6.1 kmh 29.80 in1009.1 mb 0.03 in0.8 mm 0.12 in3.0 mm 0.85 in21.6 mm
03:20 PM 46.9°F8.3°C 43.3°F6.3°C 87% 1.8 mph NW2.9 kmh NW 3.1 mph5.0 kmh 29.80 in1009.1 mb 0.03 in0.8 mm 0.00 in0.0 mm 0.85 in21.6 mm
03:25 PM 46.9°F8.3°C 43.3°F6.3°C 87% 2.8 mph NW4.5 kmh NW 4.5 mph7.2 kmh 29.80 in1009.1 mb 0.03 in0.8 mm 0.00 in0.0 mm 0.86 in21.8 mm
03:30 PM 46.9°F8.3°C 43.3°F6.3°C 87% 3.5 mph NW5.6 kmh NW 5.4 mph8.7 kmh 29.81 in1009.5 mb 0.03 in0.8 mm 0.00 in0.0 mm 0.86 in21.8 mm
03:35 PM 46.8°F8.2°C 43.1°F6.2°C 87% 3.0 mph NNW4.8 kmh NNW 3.8 mph6.1 kmh 29.81 in1009.5 mb 0.03 in0.8 mm 0.00 in0.0 mm 0.86 in21.8 mm
03:40 PM 46.8°F8.2°C 43.1°F6.2°C 87% 2.1 mph NNW3.4 kmh NNW 3.8 mph6.1 kmh 29.81 in1009.5 mb 0.03 in0.8 mm 0.00 in0.0 mm 0.87 in22.1 mm
03:45 PM 46.7°F8.2°C 43.0°F6.1°C 87% 1.0 mph N1.6 kmh N 2.2 mph3.5 kmh 29.81 in1009.5 mb 0.03 in0.8 mm 0.00 in0.0 mm 0.87 in22.1 mm
03:50 PM 46.6°F8.1°C 42.9°F6.1°C 87% 0.3 mph N0.5 kmh N 1.6 mph2.6 kmh 29.81 in1009.5 mb 0.03 in0.8 mm 0.00 in0.0 mm 0.87 in22.1 mm
03:55 PM 46.6°F8.1°C 42.9°F6.1°C 87% 1.9 mph NW3.1 kmh NW 4.5 mph7.2 kmh 29.81 in1009.5 mb 0.03 in0.8 mm 0.00 in0.0 mm 0.87 in22.1 mm
04:00 PM 46.6°F8.1°C 42.9°F6.1°C 87% 3.8 mph NW6.1 kmh NW 5.4 mph8.7 kmh 29.82 in1009.8 mb 0.03 in0.8 mm 0.00 in0.0 mm 0.87 in22.1 mm
04:05 PM 46.6°F8.1°C 42.9°F6.1°C 87% 3.8 mph NW6.1 kmh NW 5.4 mph8.7 kmh 29.82 in1009.8 mb 0.02 in0.5 mm 0.00 in0.0 mm 0.87 in22.1 mm
04:10 PM 46.5°F8.1°C 42.8°F6.0°C 87% 2.9 mph NW4.7 kmh NW 5.4 mph8.7 kmh 29.82 in1009.8 mb 0.02 in0.5 mm 0.00 in0.0 mm 0.87 in22.1 mm
04:15 PM 46.4°F8.0°C 42.7°F5.9°C 87% 3.1 mph NW5.0 kmh NW 4.5 mph7.2 kmh 29.82 in1009.8 mb 0.02 in0.5 mm 0.00 in0.0 mm 0.88 in22.4 mm
04:20 PM 46.4°F8.0°C 42.7°F5.9°C 87% 2.5 mph NW4.0 kmh NW 5.4 mph8.7 kmh 29.82 in1009.8 mb 0.03 in0.8 mm 0.12 in3.0 mm 0.88 in22.4 mm
04:25 PM 46.3°F7.9°C 42.7°F5.9°C 87% 2.4 mph N3.9 kmh N 3.8 mph6.1 kmh 29.82 in1009.8 mb 0.03 in0.8 mm 0.00 in0.0 mm 0.89 in22.6 mm
04:30 PM 46.2°F7.9°C 42.6°F5.9°C 87% 1.9 mph NW3.1 kmh NW 3.1 mph5.0 kmh 29.82 in1009.8 mb 0.02 in0.5 mm 0.00 in0.0 mm 0.89 in22.6 mm
04:35 PM 46.2°F7.9°C 42.6°F5.9°C 87% 1.9 mph NW3.1 kmh NW 3.8 mph6.1 kmh 29.82 in1009.8 mb 0.04 in1.0 mm 0.24 in6.1 mm 0.90 in22.9 mm
04:40 PM 46.2°F7.9°C 42.6°F5.9°C 87% 1.5 mph NW2.4 kmh NW 3.1 mph5.0 kmh 29.82 in1009.8 mb 0.04 in1.0 mm 0.00 in0.0 mm 0.90 in22.9 mm
04:45 PM 46.2°F7.9°C 42.5°F5.8°C 87% 1.6 mph NW2.6 kmh NW 2.2 mph3.5 kmh 29.83 in1010.2 mb 0.04 in1.0 mm 0.00 in0.0 mm 0.90 in22.9 mm
04:50 PM 46.0°F7.8°C 42.4°F5.8°C 87% 0.3 mph W0.5 kmh W 1.6 mph2.6 kmh 29.83 in1010.2 mb 0.04 in1.0 mm 0.00 in0.0 mm 0.91 in23.1 mm
04:55 PM 46.0°F7.8°C 42.4°F5.8°C 87% 0.3 mph NE0.5 kmh NE 2.2 mph3.5 kmh 29.83 in1010.2 mb 0.05 in1.3 mm 0.12 in3.0 mm 0.92 in23.4 mm
05:00 PM 46.0°F7.8°C 42.4°F5.8°C 87% 1.0 mph N1.6 kmh N 2.2 mph3.5 kmh 29.83 in1010.2 mb 0.06 in1.5 mm 0.01 in0.3 mm 0.93 in23.6 mm
05:05 PM 46.0°F7.8°C 42.4°F5.8°C 87% 1.1 mph W1.8 kmh W 3.1 mph5.0 kmh 29.84 in1010.5 mb 0.08 in2.0 mm 0.24 in6.1 mm 0.95 in24.1 mm
05:10 PM 46.0°F7.8°C 42.3°F5.7°C 87% 2.1 mph W3.4 kmh W 3.8 mph6.1 kmh 29.84 in1010.5 mb 0.10 in2.5 mm 0.24 in6.1 mm 0.96 in24.4 mm
05:15 PM 45.9°F7.7°C 42.2°F5.7°C 87% 3.1 mph NE5.0 kmh NE 4.5 mph7.2 kmh 29.83 in1010.2 mb 0.10 in2.5 mm 0.00 in0.0 mm 0.97 in24.6 mm
05:20 PM 45.9°F7.7°C 42.2°F5.7°C 87% 1.1 mph NNE1.8 kmh NNE 2.2 mph3.5 kmh 29.83 in1010.2 mb 0.10 in2.5 mm 0.00 in0.0 mm 0.98 in24.9 mm
05:25 PM 45.9°F7.7°C 42.2°F5.7°C 87% 1.6 mph N2.6 kmh N 2.2 mph3.5 kmh 29.83 in1010.2 mb 0.10 in2.5 mm 0.00 in0.0 mm 0.99 in25.1 mm
05:30 PM 45.9°F7.7°C 42.2°F5.7°C 87% 1.8 mph WNW2.9 kmh WNW 3.1 mph5.0 kmh 29.84 in1010.5 mb 0.11 in2.8 mm 0.12 in3.0 mm 0.99 in25.1 mm
05:35 PM 45.9°F7.7°C 42.2°F5.7°C 87% 0.7 mph NW1.1 kmh NW 2.2 mph3.5 kmh 29.84 in1010.5 mb 0.10 in2.5 mm 0.00 in0.0 mm 0.99 in25.1 mm
05:40 PM 45.8°F7.7°C 42.5°F5.8°C 88% 0.9 mph NW1.4 kmh NW 2.2 mph3.5 kmh 29.84 in1010.5 mb 0.10 in2.5 mm 0.00 in0.0 mm 1.00 in25.4 mm
05:45 PM 45.7°F7.6°C 43.2°F6.2°C 91% 0.3 mph NW0.5 kmh NW 1.6 mph2.6 kmh 29.85 in1010.8 mb 0.09 in2.3 mm 0.00 in0.0 mm 1.00 in25.4 mm
05:50 PM 45.7°F7.6°C 43.2°F6.2°C 91% 0.1 mph NW0.2 kmh NW 1.6 mph2.6 kmh 29.85 in1010.8 mb 0.09 in2.3 mm 0.00 in0.0 mm 1.00 in25.4 mm
05:55 PM 45.7°F7.6°C 43.2°F6.2°C 91% 0.9 mph NW1.4 kmh NW 3.1 mph5.0 kmh 29.85 in1010.8 mb 0.08 in2.0 mm 0.00 in0.0 mm 1.00 in25.4 mm
06:00 PM 45.7°F7.6°C 43.2°F6.2°C 91% 1.6 mph WNW2.6 kmh WNW 3.8 mph6.1 kmh 29.85 in1010.8 mb 0.07 in1.8 mm 0.00 in0.0 mm 1.00 in25.4 mm
06:05 PM 45.7°F7.6°C 43.2°F6.2°C 91% 0.7 mph SW1.1 kmh SW 1.6 mph2.6 kmh 29.86 in1011.2 mb 0.05 in1.3 mm 0.00 in0.0 mm 1.00 in25.4 mm
06:10 PM 45.7°F7.6°C 43.2°F6.2°C 91% 1.9 mph NW3.1 kmh NW 3.8 mph6.1 kmh 29.85 in1010.8 mb 0.06 in1.5 mm 0.12 in3.0 mm 1.02 in25.9 mm
06:15 PM 45.7°F7.6°C 43.2°F6.2°C 91% 1.5 mph NW2.4 kmh NW 3.1 mph5.0 kmh 29.85 in1010.8 mb 0.05 in1.3 mm 0.00 in0.0 mm 1.02 in25.9 mm
06:20 PM 45.7°F7.6°C 43.2°F6.2°C 91% 1.3 mph WNW2.1 kmh WNW 3.1 mph5.0 kmh 29.86 in1011.2 mb 0.04 in1.0 mm 0.00 in0.0 mm 1.02 in25.9 mm
06:25 PM 45.6°F7.6°C 43.1°F6.2°C 91% 0.6 mph NNW1.0 kmh NNW 1.6 mph2.6 kmh 29.86 in1011.2 mb 0.03 in0.8 mm 0.00 in0.0 mm 1.02 in25.9 mm
06:30 PM 45.5°F7.5°C 43.0°F6.1°C 91% 0.4 mph 0.6 kmh 2.2 mph3.5 kmh 29.86 in1011.2 mb 0.03 in0.8 mm 0.00 in0.0 mm 1.02 in25.9 mm
06:35 PM 45.5°F7.5°C 43.0°F6.1°C 91% 0.9 mph N1.4 kmh N 2.2 mph3.5 kmh 29.86 in1011.2 mb 0.03 in0.8 mm 0.00 in0.0 mm 1.02 in25.9 mm
06:40 PM 45.5°F7.5°C 43.0°F6.1°C 91% 1.0 mph N1.6 kmh N 2.2 mph3.5 kmh 29.86 in1011.2 mb 0.02 in0.5 mm 0.00 in0.0 mm 1.02 in25.9 mm
06:45 PM 45.5°F7.5°C 43.0°F6.1°C 91% 0.9 mph N1.4 kmh N 2.2 mph3.5 kmh 29.86 in1011.2 mb 0.02 in0.5 mm 0.00 in0.0 mm 1.02 in25.9 mm
06:50 PM 45.5°F7.5°C 43.0°F6.1°C 91% 1.4 mph NNW2.3 kmh NNW 3.1 mph5.0 kmh 29.87 in1011.5 mb 0.02 in0.5 mm 0.00 in0.0 mm 1.02 in25.9 mm
06:55 PM 45.5°F7.5°C 43.0°F6.1°C 91% 1.6 mph N2.6 kmh N 2.2 mph3.5 kmh 29.86 in1011.2 mb 0.02 in0.5 mm 0.00 in0.0 mm 1.02 in25.9 mm
07:00 PM 45.4°F7.4°C 42.9°F6.1°C 91% 0.7 mph NNE1.1 kmh NNE 1.6 mph2.6 kmh 29.86 in1011.2 mb 0.02 in0.5 mm 0.00 in0.0 mm 1.02 in25.9 mm
07:05 PM 45.3°F7.4°C 42.8°F6.0°C 91% 1.3 mph NNE2.1 kmh NNE 2.2 mph3.5 kmh 29.87 in1011.5 mb 0.02 in0.5 mm 0.00 in0.0 mm 1.02 in25.9 mm
07:10 PM 45.3°F7.4°C 42.8°F6.0°C 91% 1.2 mph N1.9 kmh N 2.2 mph3.5 kmh 29.86 in1011.2 mb 0.00 in0.0 mm 0.00 in0.0 mm 1.02 in25.9 mm
07:15 PM 45.3°F7.4°C 42.8°F6.0°C 91% 1.5 mph N2.4 kmh N 5.4 mph8.7 kmh 29.86 in1011.2 mb 0.00 in0.0 mm 0.00 in0.0 mm 1.02 in25.9 mm
07:20 PM 45.3°F7.4°C 42.8°F6.0°C 91% 3.1 mph N5.0 kmh N 5.4 mph8.7 kmh 29.86 in1011.2 mb 0.00 in0.0 mm 0.00 in0.0 mm 1.02 in25.9 mm
07:25 PM 45.3°F7.4°C 42.8°F6.0°C 91% 4.1 mph N6.6 kmh N 6.9 mph11.1 kmh 29.86 in1011.2 mb 0.00 in0.0 mm 0.00 in0.0 mm 1.02 in25.9 mm
07:30 PM 45.1°F7.3°C 42.7°F5.9°C 91% 3.7 mph NW6.0 kmh NW 7.6 mph12.2 kmh 29.87 in1011.5 mb 0.00 in0.0 mm 0.00 in0.0 mm 1.02 in25.9 mm
07:35 PM 45.1°F7.3°C 42.7°F5.9°C 91% 2.8 mph N4.5 kmh N 5.4 mph8.7 kmh 29.87 in1011.5 mb 0.00 in0.0 mm 0.00 in0.0 mm 1.02 in25.9 mm
07:40 PM 45.1°F7.3°C 42.7°F5.9°C 91% 3.8 mph NNE6.1 kmh NNE 5.4 mph8.7 kmh 29.86 in1011.2 mb 0.00 in0.0 mm 0.00 in0.0 mm 1.02 in25.9 mm
07:45 PM 45.1°F7.3°C 42.7°F5.9°C 91% 2.2 mph NNE3.5 kmh NNE 5.4 mph8.7 kmh 29.86 in1011.2 mb 0.00 in0.0 mm 0.00 in0.0 mm 1.02 in25.9 mm
07:50 PM 45.1°F7.3°C 42.7°F5.9°C 91% 1.9 mph N3.1 kmh N 3.8 mph6.1 kmh 29.87 in1011.5 mb 0.00 in0.0 mm 0.00 in0.0 mm 1.02 in25.9 mm
07:55 PM 45.1°F7.3°C 42.6°F5.9°C 91% 2.1 mph N3.4 kmh N 4.5 mph7.2 kmh 29.87 in1011.5 mb 0.00 in0.0 mm 0.00 in0.0 mm 1.02 in25.9 mm
08:00 PM 45.0°F7.2°C 42.5°F5.8°C 91% 3.2 mph N5.1 kmh N 5.4 mph8.7 kmh 29.87 in1011.5 mb 0.00 in0.0 mm 0.00 in0.0 mm 1.02 in25.9 mm
08:05 PM 45.0°F7.2°C 42.5°F5.8°C 91% 2.2 mph 3.5 kmh 3.8 mph6.1 kmh 29.88 in1011.9 mb 0.00 in0.0 mm 0.00 in0.0 mm 1.02 in25.9 mm
08:10 PM 44.8°F7.1°C 42.4°F5.8°C 91% 4.2 mph N6.8 kmh N 7.6 mph12.2 kmh 29.87 in1011.5 mb 0.00 in0.0 mm 0.00 in0.0 mm 1.02 in25.9 mm
08:15 PM 44.8°F7.1°C 42.3°F5.7°C 91% 4.5 mph N7.2 kmh N 6.0 mph9.7 kmh 29.87 in1011.5 mb 0.00 in0.0 mm 0.00 in0.0 mm 1.02 in25.9 mm
08:20 PM 44.8°F7.1°C 42.3°F5.7°C 91% 1.9 mph NW3.1 kmh NW 3.8 mph6.1 kmh 29.88 in1011.9 mb 0.00 in0.0 mm 0.00 in0.0 mm 1.02 in25.9 mm
08:25 PM 44.8°F7.1°C 42.3°F5.7°C 91% 4.1 mph N6.6 kmh N 6.9 mph11.1 kmh 29.88 in1011.9 mb 0.00 in0.0 mm 0.00 in0.0 mm 1.02 in25.9 mm
08:30 PM 44.6°F7.0°C 42.1°F5.6°C 91% 3.0 mph NNE4.8 kmh NNE 5.4 mph8.7 kmh 29.88 in1011.9 mb 0.00 in0.0 mm 0.00 in0.0 mm 1.02 in25.9 mm
08:35 PM 44.6°F7.0°C 42.1°F5.6°C 91% 3.8 mph 6.1 kmh 6.0 mph9.7 kmh 29.88 in1011.9 mb 0.00 in0.0 mm 0.00 in0.0 mm 1.02 in25.9 mm
08:40 PM 44.6°F7.0°C 42.1°F5.6°C 91% 3.2 mph N5.1 kmh N 4.5 mph7.2 kmh 29.88 in1011.9 mb 0.00 in0.0 mm 0.00 in0.0 mm 1.02 in25.9 mm
08:45 PM 44.5°F6.9°C 42.1°F5.6°C 91% 4.3 mph NW6.9 kmh NW 6.0 mph9.7 kmh 29.89 in1012.2 mb 0.00 in0.0 mm 0.00 in0.0 mm 1.02 in25.9 mm
08:50 PM 44.4°F6.9°C 42.0°F5.6°C 91% 4.2 mph NW6.8 kmh NW 5.4 mph8.7 kmh 29.89 in1012.2 mb 0.00 in0.0 mm 0.00 in0.0 mm 1.02 in25.9 mm
08:55 PM 44.5°F6.9°C 42.1°F5.6°C 91% 3.4 mph NNW5.5 kmh NNW 5.4 mph8.7 kmh 29.89 in1012.2 mb 0.00 in0.0 mm 0.00 in0.0 mm 1.02 in25.9 mm
09:00 PM 44.4°F6.9°C 42.0°F5.6°C 91% 4.6 mph NNW7.4 kmh NNW 6.9 mph11.1 kmh 29.89 in1012.2 mb 0.00 in0.0 mm 0.00 in0.0 mm 1.02 in25.9 mm
09:05 PM 44.4°F6.9°C 42.0°F5.6°C 91% 3.7 mph N6.0 kmh N 5.4 mph8.7 kmh 29.89 in1012.2 mb 0.00 in0.0 mm 0.00 in0.0 mm 1.02 in25.9 mm
09:10 PM 44.4°F6.9°C 42.0°F5.6°C 91% 2.2 mph NNE3.5 kmh NNE 3.8 mph6.1 kmh 29.89 in1012.2 mb 0.00 in0.0 mm 0.00 in0.0 mm 1.02 in25.9 mm
09:15 PM 44.4°F6.9°C 42.0°F5.6°C 91% 2.0 mph N3.2 kmh N 3.8 mph6.1 kmh 29.89 in1012.2 mb 0.00 in0.0 mm 0.00 in0.0 mm 1.02 in25.9 mm
09:20 PM 44.4°F6.9°C 42.0°F5.6°C 91% 3.3 mph N5.3 kmh N 5.4 mph8.7 kmh 29.89 in1012.2 mb 0.00 in0.0 mm 0.00 in0.0 mm 1.02 in25.9 mm
09:25 PM 44.4°F6.9°C 42.0°F5.6°C 91% 3.1 mph N5.0 kmh N 4.5 mph7.2 kmh 29.89 in1012.2 mb 0.00 in0.0 mm 0.00 in0.0 mm 1.02 in25.9 mm
09:30 PM 44.4°F6.9°C 42.0°F5.6°C 91% 3.4 mph N5.5 kmh N 5.4 mph8.7 kmh 29.89 in1012.2 mb 0.00 in0.0 mm 0.00 in0.0 mm 1.02 in25.9 mm
09:35 PM 44.4°F6.9°C 42.0°F5.6°C 91% 3.3 mph N5.3 kmh N 5.4 mph8.7 kmh 29.89 in1012.2 mb 0.00 in0.0 mm 0.00 in0.0 mm 1.02 in25.9 mm
09:40 PM 44.4°F6.9°C 42.0°F5.6°C 91% 3.2 mph N5.1 kmh N 5.4 mph8.7 kmh 29.89 in1012.2 mb 0.00 in0.0 mm 0.00 in0.0 mm 1.02 in25.9 mm
09:45 PM 44.4°F6.9°C 41.9°F5.5°C 91% 2.9 mph NNW4.7 kmh NNW 6.0 mph9.7 kmh 29.89 in1012.2 mb 0.00 in0.0 mm 0.00 in0.0 mm 1.02 in25.9 mm
09:50 PM 44.4°F6.9°C 41.8°F5.4°C 90% 3.9 mph NNW6.3 kmh NNW 6.0 mph9.7 kmh 29.89 in1012.2 mb 0.00 in0.0 mm 0.00 in0.0 mm 1.02 in25.9 mm
09:55 PM 44.4°F6.9°C 41.7°F5.4°C 90% 2.4 mph NW3.9 kmh NW 4.5 mph7.2 kmh 29.89 in1012.2 mb 0.00 in0.0 mm 0.00 in0.0 mm 1.02 in25.9 mm
10:00 PM 44.4°F6.9°C 41.7°F5.4°C 90% 1.5 mph NW2.4 kmh NW 3.1 mph5.0 kmh 29.89 in1012.2 mb 0.00 in0.0 mm 0.00 in0.0 mm 1.02 in25.9 mm
10:05 PM 44.4°F6.9°C 41.7°F5.4°C 90% 1.6 mph NW2.6 kmh NW 2.2 mph3.5 kmh 29.89 in1012.2 mb 0.00 in0.0 mm 0.00 in0.0 mm 1.02 in25.9 mm
10:10 PM 44.4°F6.9°C 41.7°F5.4°C 90% 2.6 mph NW4.2 kmh NW 3.8 mph6.1 kmh 29.90 in1012.5 mb 0.00 in0.0 mm 0.00 in0.0 mm 1.02 in25.9 mm
10:15 PM 44.4°F6.9°C 41.7°F5.4°C 90% 3.0 mph NW4.8 kmh NW 4.5 mph7.2 kmh 29.90 in1012.5 mb 0.00 in0.0 mm 0.00 in0.0 mm 1.02 in25.9 mm
10:20 PM 44.4°F6.9°C 41.7°F5.4°C 90% 3.1 mph NW5.0 kmh NW 5.4 mph8.7 kmh 29.90 in1012.5 mb 0.00 in0.0 mm 0.00 in0.0 mm 1.02 in25.9 mm
10:25 PM 44.4°F6.9°C 41.7°F5.4°C 90% 1.3 mph NW2.1 kmh NW 4.5 mph7.2 kmh 29.90 in1012.5 mb 0.00 in0.0 mm 0.00 in0.0 mm 1.02 in25.9 mm
10:30 PM 44.4°F6.9°C 41.7°F5.4°C 90% 2.6 mph N4.2 kmh N 3.8 mph6.1 kmh 29.90 in1012.5 mb 0.00 in0.0 mm 0.00 in0.0 mm 1.02 in25.9 mm
10:35 PM 44.4°F6.9°C 41.6°F5.3°C 90% 1.7 mph N2.7 kmh N 3.1 mph5.0 kmh 29.90 in1012.5 mb 0.00 in0.0 mm 0.00 in0.0 mm 1.02 in25.9 mm
10:40 PM 44.2°F6.8°C 41.5°F5.3°C 90% 1.1 mph N1.8 kmh N 2.2 mph3.5 kmh 29.91 in1012.9 mb 0.00 in0.0 mm 0.00 in0.0 mm 1.02 in25.9 mm
10:45 PM 44.2°F6.8°C 41.5°F5.3°C 90% 0.6 mph NNE1.0 kmh NNE 2.2 mph3.5 kmh 29.90 in1012.5 mb 0.00 in0.0 mm 0.00 in0.0 mm 1.02 in25.9 mm
10:50 PM 44.2°F6.8°C 41.5°F5.3°C 90% 1.2 mph NNE1.9 kmh NNE 3.1 mph5.0 kmh 29.90 in1012.5 mb 0.00 in0.0 mm 0.00 in0.0 mm 1.03 in26.2 mm
10:55 PM 44.2°F6.8°C 41.5°F5.3°C 90% 0.6 mph NNW1.0 kmh NNW 2.2 mph3.5 kmh 29.90 in1012.5 mb 0.00 in0.0 mm 0.00 in0.0 mm 1.03 in26.2 mm
11:00 PM 44.2°F6.8°C 41.5°F5.3°C 90% 0.9 mph NE1.4 kmh NE 2.2 mph3.5 kmh 29.90 in1012.5 mb 0.00 in0.0 mm 0.00 in0.0 mm 1.03 in26.2 mm
11:05 PM 44.2°F6.8°C 41.5°F5.3°C 90% 0.7 mph NNE1.1 kmh NNE 1.6 mph2.6 kmh 29.90 in1012.5 mb 0.01 in0.3 mm 0.12 in3.0 mm 1.03 in26.2 mm
11:10 PM 44.2°F6.8°C 41.5°F5.3°C 90% 0.9 mph NW1.4 kmh NW 2.2 mph3.5 kmh 29.91 in1012.9 mb 0.01 in0.3 mm 0.00 in0.0 mm 1.03 in26.2 mm
11:15 PM 44.1°F6.7°C 41.3°F5.2°C 90% 2.1 mph NW3.4 kmh NW 3.8 mph6.1 kmh 29.91 in1012.9 mb 0.01 in0.3 mm 0.00 in0.0 mm 1.03 in26.2 mm
11:20 PM 44.1°F6.7°C 41.3°F5.2°C 90% 0.6 mph WNW1.0 kmh WNW 2.2 mph3.5 kmh 29.92 in1013.2 mb 0.01 in0.3 mm 0.00 in0.0 mm 1.03 in26.2 mm
11:25 PM 44.1°F6.7°C 41.3°F5.2°C 90% 0.4 mph NW0.6 kmh NW 1.6 mph2.6 kmh 29.92 in1013.2 mb 0.01 in0.3 mm 0.00 in0.0 mm 1.03 in26.2 mm
11:30 PM 44.1°F6.7°C 41.3°F5.2°C 90% 1.0 mph NW1.6 kmh NW 2.2 mph3.5 kmh 29.92 in1013.2 mb 0.01 in0.3 mm 0.00 in0.0 mm 1.03 in26.2 mm
11:35 PM 44.1°F6.7°C 41.3°F5.2°C 90% 0.9 mph NNE1.4 kmh NNE 2.2 mph3.5 kmh 29.92 in1013.2 mb 0.01 in0.3 mm 0.00 in0.0 mm 1.03 in26.2 mm
11:40 PM 44.1°F6.7°C 41.3°F5.2°C 90% 1.1 mph NNE1.8 kmh NNE 2.2 mph3.5 kmh 29.92 in1013.2 mb 0.01 in0.3 mm 0.00 in0.0 mm 1.03 in26.2 mm
11:45 PM 44.1°F6.7°C 41.3°F5.2°C 90% Calm Calm 0.7 mph1.1 kmh 29.92 in1013.2 mb 0.01 in0.3 mm 0.00 in0.0 mm 1.03 in26.2 mm
11:50 PM 44.1°F6.7°C 41.3°F5.2°C 90% 0.5 mph W0.8 kmh W 1.6 mph2.6 kmh 29.92 in1013.2 mb 0.01 in0.3 mm 0.00 in0.0 mm 1.04 in26.4 mm
11:55 PM 44.1°F6.7°C 41.3°F5.2°C 90% 0.3 mph WNW0.5 kmh WNW 1.6 mph2.6 kmh 29.93 in1013.5 mb 0.01 in0.3 mm 0.00 in0.0 mm 1.04 in26.4 mm